VIR512 KJFK-EGLL
Flight info
| Callsign | VIR512 |
|---|---|
| Flight time | N/A |
| Altitude | 35000 |
| Route | BETTE DCT ACK DCT BRADD N427A ELSIR/M083F370 DCT 50N050W 51N040W 52N030W 53N020W DCT MALOT DCT GISTI/N0478F370 DCT ENJEX DCT AVZAC DCT INFEC DCT JETZI DCT AMFUL DCT ORZEB/N0428F230 P2 SIRIC |
| Aircraft | A346/H-SDE2E3FGHIJ3J4J5M1RWXY/LB1D1 |
Departure
| Time | 2026-05-05 19:57 |
|---|---|
| Airport | John F. Kennedy International Airport (KJFK) |
Arrival
| Time | N/A |
|---|---|
| Airport | London Heathrow Airport (EGLL) |
| Time | Latitude | Longitude | Altitude | Speed | Heading |
|---|---|---|---|---|---|
| 2026-05-05 19:37 | 40.64177 | -73.79324 | 33 ft | 0 kts | 108° |
| 2026-05-05 19:45 | 40.64180 | -73.79337 | 33 ft | 4 kts | 108° |
| 2026-05-05 19:46 | 40.64187 | -73.79364 | 33 ft | 4 kts | 110° |
| 2026-05-05 19:46 | 40.64196 | -73.79382 | 32 ft | 4 kts | 149° |
| 2026-05-05 19:46 | 40.64216 | -73.79391 | 32 ft | 4 kts | 169° |
| 2026-05-05 19:46 | 40.64237 | -73.79392 | 32 ft | 4 kts | 197° |
| 2026-05-05 19:47 | 40.64256 | -73.79378 | 29 ft | 3 kts | 224° |
| 2026-05-05 19:47 | 40.64250 | -73.79384 | 30 ft | 4 kts | 219° |
| 2026-05-05 19:47 | 40.64250 | -73.79386 | 30 ft | 0 kts | 227° |
| 2026-05-05 19:49 | 40.64246 | -73.79390 | 31 ft | 2 kts | 227° |
| 2026-05-05 19:49 | 40.64225 | -73.79428 | 31 ft | 12 kts | 238° |
| 2026-05-05 19:50 | 40.64234 | -73.79475 | 32 ft | 8 kts | 330° |
| 2026-05-05 19:50 | 40.64315 | -73.79495 | 33 ft | 16 kts | 355° |
| 2026-05-05 19:50 | 40.64449 | -73.79497 | 32 ft | 21 kts | 354° |
| 2026-05-05 19:50 | 40.64609 | -73.79540 | 32 ft | 24 kts | 337° |
| 2026-05-05 19:51 | 40.64754 | -73.79667 | 32 ft | 26 kts | 328° |
| 2026-05-05 19:51 | 40.64931 | -73.79707 | 32 ft | 27 kts | 0° |
| 2026-05-05 19:51 | 40.65085 | -73.79598 | 32 ft | 28 kts | 60° |
| 2026-05-05 19:51 | 40.65183 | -73.79366 | 32 ft | 30 kts | 62° |
| 2026-05-05 19:52 | 40.65181 | -73.79099 | 32 ft | 30 kts | 108° |
| 2026-05-05 19:52 | 40.65135 | -73.78855 | 32 ft | 27 kts | 90° |
| 2026-05-05 19:52 | 40.65201 | -73.78616 | 35 ft | 28 kts | 57° |
| 2026-05-05 19:52 | 40.65256 | -73.78366 | 33 ft | 30 kts | 111° |
| 2026-05-05 19:53 | 40.65153 | -73.78128 | 31 ft | 31 kts | 122° |
| 2026-05-05 19:53 | 40.65040 | -73.77878 | 29 ft | 33 kts | 120° |
| 2026-05-05 19:53 | 40.64923 | -73.77618 | 29 ft | 33 kts | 121° |
| 2026-05-05 19:53 | 40.64812 | -73.77379 | 31 ft | 23 kts | 122° |
| 2026-05-05 19:54 | 40.64766 | -73.77193 | 31 ft | 23 kts | 70° |
| 2026-05-05 19:54 | 40.64865 | -73.77002 | 27 ft | 27 kts | 54° |
| 2026-05-05 19:54 | 40.64976 | -73.76793 | 29 ft | 24 kts | 62° |
| 2026-05-05 19:54 | 40.64971 | -73.76646 | 29 ft | 13 kts | 58° |
| 2026-05-05 19:55 | 40.65045 | -73.76567 | 30 ft | 15 kts | 31° |
| 2026-05-05 19:55 | 40.65086 | -73.76453 | 31 ft | 15 kts | 108° |
| 2026-05-05 19:55 | 40.65011 | -73.76375 | 31 ft | 15 kts | 188° |
| 2026-05-05 19:55 | 40.64968 | -73.76400 | 31 ft | 11 kts | 209° |
| 2026-05-05 19:56 | 40.64728 | -73.76586 | 30 ft | 68 kts | 210° |
| 2026-05-05 19:56 | 40.64166 | -73.77026 | 30 ft | 118 kts | 211° |
| 2026-05-05 19:56 | 40.63330 | -73.77680 | 37 ft | 160 kts | 210° |
| 2026-05-05 19:56 | 40.62325 | -73.78495 | 324 ft | 174 kts | 207° |
| 2026-05-05 19:57 | 40.61284 | -73.79364 | 940 ft | 173 kts | 209° |
| 2026-05-05 19:57 | 40.60604 | -73.79937 | 1347 ft | 174 kts | 210° |
| 2026-05-05 19:57 | 40.59196 | -73.81049 | 2051 ft | 182 kts | 210° |
| 2026-05-05 19:57 | 40.58024 | -73.81804 | 2330 ft | 196 kts | 194° |
| 2026-05-05 19:58 | 40.56613 | -73.81516 | 2621 ft | 224 kts | 156° |
| 2026-05-05 19:58 | 40.55466 | -73.79976 | 2910 ft | 256 kts | 120° |
| 2026-05-05 19:58 | 40.55108 | -73.77605 | 3280 ft | 280 kts | 96° |
| 2026-05-05 19:58 | 40.55136 | -73.75001 | 3852 ft | 289 kts | 92° |
| 2026-05-05 19:59 | 40.55224 | -73.72333 | 4515 ft | 293 kts | 91° |
| 2026-05-05 19:59 | 40.55304 | -73.69638 | 5182 ft | 297 kts | 91° |
| 2026-05-05 19:59 | 40.55367 | -73.66903 | 5845 ft | 301 kts | 92° |
| 2026-05-05 19:59 | 40.55415 | -73.64129 | 6516 ft | 306 kts | 92° |
| 2026-05-05 20:00 | 40.55454 | -73.61292 | 7076 ft | 314 kts | 92° |
| 2026-05-05 20:00 | 40.55488 | -73.58382 | 7714 ft | 320 kts | 92° |
| 2026-05-05 20:00 | 40.55520 | -73.55434 | 8421 ft | 324 kts | 92° |
| 2026-05-05 20:00 | 40.55548 | -73.52447 | 9148 ft | 328 kts | 92° |
| 2026-05-05 20:01 | 40.55576 | -73.49420 | 9842 ft | 333 kts | 92° |
| 2026-05-05 20:01 | 40.55602 | -73.46341 | 10409 ft | 340 kts | 92° |
| 2026-05-05 20:01 | 40.55628 | -73.43159 | 10775 ft | 356 kts | 91° |
| 2026-05-05 20:01 | 40.55655 | -73.39820 | 11083 ft | 372 kts | 91° |
| 2026-05-05 20:02 | 40.55683 | -73.36332 | 11389 ft | 389 kts | 91° |
| 2026-05-05 20:02 | 40.55712 | -73.32692 | 11684 ft | 406 kts | 91° |
| 2026-05-05 20:02 | 40.55739 | -73.28909 | 12003 ft | 421 kts | 91° |
| 2026-05-05 20:02 | 40.55770 | -73.25061 | 12568 ft | 427 kts | 90° |
| 2026-05-05 20:03 | 40.55798 | -73.21139 | 13319 ft | 430 kts | 90° |
| 2026-05-05 20:03 | 40.55825 | -73.17182 | 14041 ft | 432 kts | 90° |
| 2026-05-05 20:03 | 40.55852 | -73.13211 | 14697 ft | 435 kts | 90° |
| 2026-05-05 20:03 | 40.55876 | -73.09223 | 15367 ft | 437 kts | 90° |
| 2026-05-05 20:04 | 40.55916 | -73.05210 | 16030 ft | 440 kts | 88° |
| 2026-05-05 20:04 | 40.56222 | -73.01192 | 16668 ft | 443 kts | 81° |
| 2026-05-05 20:04 | 40.56901 | -72.97230 | 17321 ft | 445 kts | 73° |
| 2026-05-05 20:04 | 40.57851 | -72.93334 | 17964 ft | 447 kts | 71° |
| 2026-05-05 20:05 | 40.58866 | -72.89450 | 18566 ft | 450 kts | 70° |
| 2026-05-05 20:05 | 40.59545 | -72.86863 | 18922 ft | 452 kts | 70° |
| 2026-05-05 20:05 | 40.60574 | -72.82926 | 19450 ft | 455 kts | 71° |
| 2026-05-05 20:05 | 40.61934 | -72.77672 | 20143 ft | 459 kts | 71° |
| 2026-05-05 20:06 | 40.62627 | -72.74974 | 20485 ft | 461 kts | 71° |
| 2026-05-05 20:06 | 40.63656 | -72.70950 | 20993 ft | 464 kts | 71° |
| 2026-05-05 20:06 | 40.64688 | -72.66903 | 21514 ft | 468 kts | 71° |
| 2026-05-05 20:06 | 40.65728 | -72.62815 | 22003 ft | 471 kts | 71° |
| 2026-05-05 20:07 | 40.66758 | -72.58756 | 22502 ft | 474 kts | 71° |
| 2026-05-05 20:07 | 40.67809 | -72.54611 | 22973 ft | 478 kts | 71° |
| 2026-05-05 20:07 | 40.68864 | -72.50434 | 23448 ft | 481 kts | 71° |
| 2026-05-05 20:07 | 40.69924 | -72.46225 | 23853 ft | 485 kts | 71° |
| 2026-05-05 20:08 | 40.70986 | -72.41999 | 24259 ft | 487 kts | 71° |
| 2026-05-05 20:08 | 40.72055 | -72.37742 | 24715 ft | 489 kts | 71° |
| 2026-05-05 20:08 | 40.73125 | -72.33471 | 25150 ft | 490 kts | 71° |
| 2026-05-05 20:08 | 40.74197 | -72.29189 | 25576 ft | 492 kts | 70° |
| 2026-05-05 20:09 | 40.75273 | -72.24880 | 25990 ft | 494 kts | 70° |
| 2026-05-05 20:09 | 40.76354 | -72.20555 | 26395 ft | 497 kts | 70° |
| 2026-05-05 20:09 | 40.77438 | -72.16207 | 26792 ft | 499 kts | 70° |
| 2026-05-05 20:09 | 40.78523 | -72.11836 | 27190 ft | 501 kts | 70° |
| 2026-05-05 20:10 | 40.79611 | -72.07446 | 27611 ft | 503 kts | 70° |
| 2026-05-05 20:10 | 40.80701 | -72.03044 | 28019 ft | 505 kts | 70° |
| 2026-05-05 20:10 | 40.81792 | -71.98631 | 28422 ft | 506 kts | 70° |
| 2026-05-05 20:10 | 40.82883 | -71.94208 | 28956 ft | 505 kts | 70° |
| 2026-05-05 20:11 | 40.83954 | -71.89857 | 29568 ft | 502 kts | 70° |
| 2026-05-05 20:11 | 40.85030 | -71.85478 | 30146 ft | 500 kts | 70° |
| 2026-05-05 20:11 | 40.86104 | -71.81108 | 30602 ft | 498 kts | 70° |
| 2026-05-05 20:11 | 40.87174 | -71.76746 | 31029 ft | 498 kts | 70° |
| 2026-05-05 20:12 | 40.88240 | -71.72391 | 31443 ft | 497 kts | 70° |
| 2026-05-05 20:12 | 40.89303 | -71.68037 | 31845 ft | 497 kts | 70° |
| 2026-05-05 20:12 | 40.90364 | -71.63682 | 32257 ft | 497 kts | 70° |
| 2026-05-05 20:12 | 40.91421 | -71.59335 | 32660 ft | 496 kts | 70° |
| 2026-05-05 20:13 | 40.92477 | -71.54985 | 33085 ft | 495 kts | 71° |
| 2026-05-05 20:13 | 40.93529 | -71.50650 | 33441 ft | 495 kts | 71° |
| 2026-05-05 20:13 | 40.94584 | -71.46288 | 33721 ft | 497 kts | 71° |
| 2026-05-05 20:13 | 40.95637 | -71.41915 | 33988 ft | 499 kts | 71° |
| 2026-05-05 20:14 | 40.96692 | -71.37530 | 34242 ft | 500 kts | 71° |
| 2026-05-05 20:14 | 40.97749 | -71.33127 | 34501 ft | 501 kts | 71° |
| 2026-05-05 20:14 | 40.98788 | -71.28795 | 34738 ft | 494 kts | 71° |
| 2026-05-05 20:15 | 40.98984 | -71.27975 | 34748 ft | 491 kts | 71° |